createdAt,value
2022-11-30T00:01:11.351Z,29.83
2022-11-30T00:03:39.054Z,31.67
2022-11-30T00:06:06.726Z,31.10
2022-11-30T00:08:34.159Z,30.00
2022-11-30T00:11:01.630Z,36.37
2022-11-30T00:13:29.045Z,29.37
2022-11-30T00:16:00.908Z,37.13
2022-11-30T00:18:29.693Z,32.87
2022-11-30T00:20:59.987Z,33.27
2022-11-30T00:23:27.539Z,32.77
2022-11-30T00:25:54.940Z,28.73
2022-11-30T00:28:22.361Z,31.40
2022-11-30T00:30:58.000Z,31.60
2022-11-30T00:33:25.762Z,30.90
2022-11-30T00:35:58.414Z,30.73
2022-11-30T00:38:26.019Z,31.57
2022-11-30T00:40:53.442Z,38.53
2022-11-30T00:43:20.880Z,42.17
2022-11-30T00:45:48.434Z,37.07
2022-11-30T00:48:15.916Z,32.53
2022-11-30T00:50:43.401Z,31.87
2022-11-30T00:53:12.149Z,32.23
2022-11-30T00:55:39.605Z,27.13
2022-11-30T00:58:07.655Z,27.50
2022-11-30T01:00:35.262Z,24.93
2022-11-30T01:03:03.024Z,27.83
2022-11-30T01:05:30.787Z,27.17
2022-11-30T01:08:00.727Z,27.47
2022-11-30T01:10:29.582Z,26.13
2022-11-30T01:12:57.021Z,25.57
2022-11-30T01:15:24.444Z,26.23
2022-11-30T01:17:51.864Z,26.90
2022-11-30T01:20:19.571Z,26.17
2022-11-30T01:22:47.370Z,26.87
2022-11-30T01:25:14.799Z,26.00
2022-11-30T01:27:44.705Z,23.27
2022-11-30T01:30:12.599Z,26.93
2022-11-30T01:32:40.012Z,25.07
2022-11-30T01:35:11.591Z,23.87
2022-11-30T01:37:39.051Z,25.07
2022-11-30T01:40:07.209Z,25.50
2022-11-30T01:42:34.823Z,27.87
2022-11-30T01:45:04.917Z,25.43
2022-11-30T01:47:33.984Z,25.83
2022-11-30T01:50:04.243Z,27.10
2022-11-30T01:52:34.199Z,26.20
2022-11-30T01:55:06.750Z,27.83
2022-11-30T01:57:37.171Z,26.30
2022-11-30T02:00:08.134Z,23.83
2022-11-30T02:02:40.481Z,27.93
2022-11-30T02:05:08.321Z,26.73
2022-11-30T02:07:36.185Z,27.97
2022-11-30T02:10:03.712Z,26.93
2022-11-30T02:12:35.698Z,30.03
2022-11-30T02:15:06.273Z,22.43
2022-11-30T02:17:39.677Z,23.80
2022-11-30T02:20:26.915Z,26.27
2022-11-30T02:23:06.271Z,29.40
2022-11-30T02:25:37.555Z,28.63
2022-11-30T02:28:20.472Z,25.43
2022-11-30T02:30:51.432Z,26.60
2022-11-30T02:33:20.730Z,27.13
2022-11-30T02:35:54.777Z,30.00
2022-11-30T02:38:23.203Z,25.43
2022-11-30T02:40:50.642Z,28.00
2022-11-30T02:43:19.985Z,28.37
2022-11-30T02:45:51.583Z,26.10
2022-11-30T02:48:21.510Z,27.67
2022-11-30T02:50:50.962Z,27.90
2022-11-30T02:53:18.407Z,26.87
2022-11-30T02:55:45.930Z,26.97
2022-11-30T02:58:14.562Z,25.93
2022-11-30T03:00:42.298Z,23.40
2022-11-30T03:03:11.019Z,25.80
2022-11-30T03:05:38.429Z,24.20
2022-11-30T03:08:06.024Z,26.20
2022-11-30T03:10:33.457Z,23.17
2022-11-30T03:13:01.386Z,26.53
2022-11-30T03:15:28.799Z,25.97
2022-11-30T03:17:56.532Z,26.63
2022-11-30T03:20:25.563Z,27.63
2022-11-30T03:22:52.975Z,24.17
2022-11-30T03:25:20.366Z,25.10
2022-11-30T03:27:47.764Z,23.60
2022-11-30T03:30:15.296Z,24.13
2022-11-30T03:32:42.695Z,24.93
2022-11-30T03:35:10.131Z,22.50
2022-11-30T03:37:38.883Z,21.87
2022-11-30T03:40:06.986Z,29.17
2022-11-30T03:42:34.390Z,27.20
2022-11-30T03:45:01.804Z,29.63
2022-11-30T03:47:29.224Z,28.53
2022-11-30T03:49:56.613Z,28.00
2022-11-30T03:52:24.156Z,26.43
2022-11-30T03:54:52.897Z,26.50
2022-11-30T03:57:20.308Z,19.77
2022-11-30T03:59:47.708Z,23.80
2022-11-30T04:02:15.152Z,26.03
2022-11-30T04:04:42.531Z,26.10
2022-11-30T04:07:09.929Z,26.60
2022-11-30T04:09:37.326Z,21.60
2022-11-30T04:12:06.767Z,23.23
2022-11-30T04:14:34.167Z,22.83
2022-11-30T04:17:02.684Z,21.97
2022-11-30T04:19:30.070Z,22.00
2022-11-30T04:21:57.452Z,21.63
2022-11-30T04:24:24.940Z,21.77
2022-11-30T04:26:52.351Z,22.13
2022-11-30T04:29:21.112Z,20.27
2022-11-30T04:31:48.588Z,22.53
2022-11-30T04:34:17.217Z,23.57
2022-11-30T04:36:44.654Z,19.20
2022-11-30T04:39:12.084Z,21.03
2022-11-30T04:41:40.435Z,21.10
2022-11-30T04:44:07.917Z,22.70
2022-11-30T04:46:37.351Z,23.23
2022-11-30T04:49:04.781Z,21.40
2022-11-30T04:51:32.180Z,25.60
2022-11-30T04:53:59.557Z,21.87
2022-11-30T04:56:26.957Z,24.27
2022-11-30T04:58:54.344Z,21.77
2022-11-30T05:01:21.831Z,19.63
2022-11-30T05:03:50.661Z,22.93
2022-11-30T05:06:18.066Z,23.90
2022-11-30T05:08:45.462Z,21.97
2022-11-30T05:11:12.861Z,20.73
2022-11-30T05:13:40.280Z,21.37
2022-11-30T05:16:08.314Z,18.80
2022-11-30T05:18:35.750Z,22.30
2022-11-30T05:21:04.562Z,19.90
2022-11-30T05:23:31.971Z,23.53
2022-11-30T05:26:02.088Z,21.07
2022-11-30T05:28:29.535Z,21.37
2022-11-30T05:30:56.930Z,20.77
2022-11-30T05:33:25.371Z,18.33
2022-11-30T05:35:52.774Z,21.70
2022-11-30T05:38:21.511Z,21.50
2022-11-30T05:40:48.911Z,23.43
2022-11-30T05:43:16.311Z,21.63
2022-11-30T05:45:43.693Z,18.60
2022-11-30T05:48:11.158Z,21.80
2022-11-30T05:50:38.544Z,21.60
2022-11-30T05:53:05.905Z,22.13
2022-11-30T05:55:34.671Z,21.97
2022-11-30T05:58:02.067Z,20.20
2022-11-30T06:00:30.550Z,18.77
2022-11-30T06:02:58.561Z,15.47
2022-11-30T06:05:26.597Z,22.03
2022-11-30T06:07:54.313Z,23.37
2022-11-30T06:10:21.998Z,21.33
2022-11-30T06:12:51.720Z,20.20
2022-11-30T06:15:19.135Z,20.87
2022-11-30T06:17:46.542Z,21.27
2022-11-30T06:20:14.525Z,19.07
2022-11-30T06:22:41.925Z,23.63
2022-11-30T06:25:09.451Z,18.60
2022-11-30T06:27:36.867Z,19.60
2022-11-30T06:30:06.472Z,16.13
2022-11-30T06:32:33.867Z,22.47
2022-11-30T06:35:01.262Z,18.33
2022-11-30T06:37:28.711Z,20.23
2022-11-30T06:40:06.669Z,18.43
2022-11-30T06:42:36.378Z,17.90
2022-11-30T06:45:04.108Z,20.20
2022-11-30T06:47:32.856Z,21.40
2022-11-30T06:50:00.290Z,18.90
2022-11-30T06:52:28.113Z,18.60
2022-11-30T06:54:55.513Z,16.83
2022-11-30T06:57:26.918Z,21.43
2022-11-30T06:59:54.363Z,19.20
2022-11-30T07:02:21.839Z,18.40
2022-11-30T07:04:50.807Z,19.47
2022-11-30T07:07:18.442Z,18.30
2022-11-30T07:09:45.891Z,18.50
2022-11-30T07:12:13.329Z,17.33
2022-11-30T07:14:40.730Z,18.30
2022-11-30T07:17:08.163Z,19.87
2022-11-30T07:19:35.695Z,20.03
2022-11-30T07:22:04.455Z,16.10
2022-11-30T07:24:49.794Z,18.57
2022-11-30T07:27:17.455Z,16.47
2022-11-30T07:29:44.908Z,18.57
2022-11-30T07:32:12.378Z,15.77
2022-11-30T07:34:39.793Z,17.10
2022-11-30T07:37:08.546Z,16.00
2022-11-30T07:39:35.958Z,17.37
2022-11-30T07:42:03.335Z,15.90
2022-11-30T07:44:30.750Z,17.00
2022-11-30T07:46:58.133Z,17.67
2022-11-30T07:49:25.702Z,16.37
2022-11-30T07:51:54.240Z,15.47
2022-11-30T07:54:23.033Z,16.50
2022-11-30T07:56:50.446Z,17.17
2022-11-30T07:59:17.964Z,13.80
2022-11-30T08:01:45.717Z,13.33
2022-11-30T08:04:14.410Z,15.43
2022-11-30T08:06:42.205Z,15.33
2022-11-30T08:09:19.232Z,14.87
2022-11-30T08:11:49.619Z,14.87
2022-11-30T08:14:17.135Z,15.17
2022-11-30T08:16:44.686Z,13.40
2022-11-30T08:19:12.199Z,12.60
2022-11-30T08:21:40.653Z,11.27
2022-11-30T08:24:08.255Z,15.87
2022-11-30T08:26:35.754Z,13.97
2022-11-30T08:29:04.811Z,11.93
2022-11-30T08:31:32.874Z,14.07
2022-11-30T08:34:01.322Z,14.83
2022-11-30T08:36:29.722Z,17.00
2022-11-30T08:38:58.028Z,14.13
2022-11-30T08:41:25.912Z,15.17
2022-11-30T08:43:53.617Z,13.10
2022-11-30T08:49:26.563Z,15.63
2022-11-30T08:54:45.013Z,15.20
2022-11-30T08:57:12.846Z,13.63
2022-11-30T08:59:40.266Z,13.30
2022-11-30T09:02:10.057Z,14.17
2022-11-30T09:04:37.470Z,14.10
2022-11-30T09:07:04.911Z,12.53
2022-11-30T09:09:32.562Z,13.00
2022-11-30T09:12:00.100Z,11.50
2022-11-30T09:14:27.497Z,12.23
2022-11-30T09:16:55.174Z,14.27
2022-11-30T09:19:23.947Z,11.37
2022-11-30T09:21:52.399Z,11.97
2022-11-30T09:24:20.304Z,12.13
2022-11-30T09:26:47.790Z,12.23
2022-11-30T09:29:15.219Z,11.63
2022-11-30T09:31:42.655Z,11.90
2022-11-30T09:34:11.714Z,11.40
2022-11-30T09:36:40.533Z,10.90
2022-11-30T09:39:07.968Z,11.43
2022-11-30T09:41:50.327Z,14.83
2022-11-30T09:44:21.503Z,10.73
2022-11-30T09:46:50.465Z,11.73
2022-11-30T09:49:19.687Z,11.00
2022-11-30T09:51:49.004Z,10.37
2022-11-30T09:54:17.709Z,12.10
2022-11-30T09:56:45.491Z,10.20
2022-11-30T09:59:15.583Z,11.13
2022-11-30T10:01:46.090Z,9.30
2022-11-30T10:04:21.083Z,12.77
2022-11-30T10:06:53.981Z,12.23
2022-11-30T10:09:27.175Z,12.70
2022-11-30T10:11:58.898Z,13.37
2022-11-30T10:14:33.700Z,16.17
2022-11-30T10:17:03.942Z,12.57
2022-11-30T10:19:41.132Z,14.53
2022-11-30T10:22:14.405Z,13.30
2022-11-30T10:24:52.746Z,14.30
2022-11-30T10:27:31.553Z,13.53
2022-11-30T10:30:00.086Z,13.97
2022-11-30T10:32:33.241Z,13.73
2022-11-30T10:35:04.131Z,12.77
2022-11-30T10:37:36.075Z,13.67
2022-11-30T10:40:05.729Z,13.20
2022-11-30T10:42:35.633Z,15.70
2022-11-30T10:45:09.279Z,14.13
2022-11-30T10:47:37.685Z,12.50
2022-11-30T10:50:05.510Z,12.63
2022-11-30T10:52:36.857Z,14.57
2022-11-30T10:55:05.332Z,14.83
2022-11-30T10:57:33.353Z,13.20
2022-11-30T11:00:01.499Z,11.37
2022-11-30T11:02:36.833Z,11.23
2022-11-30T11:05:18.057Z,11.20
2022-11-30T11:07:49.233Z,11.43
2022-11-30T11:10:17.911Z,9.73
2022-11-30T11:12:47.796Z,8.73
2022-11-30T11:15:20.452Z,10.63
2022-11-30T11:17:48.232Z,11.23
2022-11-30T11:20:32.973Z,12.77
2022-11-30T11:23:02.882Z,11.93
2022-11-30T11:25:33.698Z,15.57
2022-11-30T11:28:04.142Z,11.87
2022-11-30T11:30:32.073Z,10.13
2022-11-30T11:33:01.477Z,10.40
2022-11-30T11:35:36.372Z,11.90
2022-11-30T11:38:05.278Z,9.90
2022-11-30T11:40:32.809Z,15.20
2022-11-30T11:43:00.598Z,11.67
2022-11-30T11:45:29.526Z,11.67
2022-11-30T11:47:58.984Z,11.60
2022-11-30T11:53:26.619Z,12.00
2022-11-30T11:55:56.138Z,10.73
2022-11-30T11:58:27.642Z,11.47
2022-11-30T12:01:16.877Z,10.63
2022-11-30T12:03:44.898Z,10.67
2022-11-30T12:06:14.791Z,12.03
2022-11-30T12:08:47.435Z,12.40
2022-11-30T12:11:16.887Z,10.53
2022-11-30T12:13:45.280Z,12.17
2022-11-30T12:16:36.465Z,10.03
2022-11-30T12:19:08.720Z,11.17
2022-11-30T12:21:42.606Z,10.47
2022-11-30T12:24:23.098Z,10.83
2022-11-30T12:26:57.527Z,12.97
2022-11-30T12:29:25.969Z,12.63
2022-11-30T12:32:02.167Z,13.30
2022-11-30T12:34:36.137Z,15.00
2022-11-30T12:37:09.734Z,14.77
2022-11-30T12:39:43.585Z,15.23
2022-11-30T12:42:15.634Z,13.53
2022-11-30T12:44:48.340Z,16.50
2022-11-30T12:47:22.470Z,16.53
2022-11-30T12:49:56.702Z,17.67
2022-11-30T12:52:29.047Z,17.53
2022-11-30T12:55:00.757Z,14.23
2022-11-30T12:57:30.085Z,16.07
2022-11-30T13:00:02.765Z,16.30
2022-11-30T13:02:51.005Z,17.03
2022-11-30T13:05:22.702Z,16.57
2022-11-30T13:07:53.428Z,16.87
2022-11-30T13:10:26.991Z,16.17
2022-11-30T13:12:54.789Z,18.53
2022-11-30T13:15:23.687Z,18.53
2022-11-30T13:17:51.861Z,17.77
2022-11-30T13:20:23.050Z,16.57
2022-11-30T13:22:53.652Z,18.63
2022-11-30T13:25:45.264Z,18.73
2022-11-30T13:28:18.910Z,18.60
2022-11-30T13:30:51.078Z,20.73
2022-11-30T13:33:36.904Z,21.37
2022-11-30T13:36:05.285Z,20.83
2022-11-30T13:38:37.739Z,20.57
2022-11-30T13:41:07.906Z,22.00
2022-11-30T13:43:37.941Z,21.83
2022-11-30T13:46:06.656Z,21.67
2022-11-30T13:48:35.174Z,21.00
2022-11-30T13:51:04.079Z,21.77
2022-11-30T13:53:34.208Z,23.83
2022-11-30T13:56:03.232Z,24.10
2022-11-30T13:58:31.142Z,23.30
2022-11-30T14:01:04.638Z,21.90
2022-11-30T14:03:32.503Z,22.47
2022-11-30T14:06:00.554Z,23.57
2022-11-30T14:08:36.794Z,23.73
2022-11-30T14:11:23.016Z,22.10
2022-11-30T14:13:50.983Z,21.83
2022-11-30T14:16:24.146Z,23.63
2022-11-30T14:18:51.807Z,25.57
2022-11-30T14:21:22.442Z,23.13
2022-11-30T14:23:53.158Z,22.40
2022-11-30T14:26:23.176Z,22.60
2022-11-30T14:28:53.335Z,21.80
2022-11-30T14:31:23.069Z,21.53
2022-11-30T14:33:55.644Z,22.40
2022-11-30T14:36:24.110Z,20.27
2022-11-30T14:38:51.697Z,21.20
2022-11-30T14:41:23.023Z,23.53
2022-11-30T14:44:03.606Z,20.93
2022-11-30T14:46:31.441Z,20.87
2022-11-30T14:49:12.368Z,22.93
2022-11-30T14:51:39.923Z,19.90
2022-11-30T14:54:12.625Z,20.67
2022-11-30T14:56:44.045Z,19.80
2022-11-30T14:59:17.752Z,19.33
2022-11-30T15:01:45.574Z,19.23
2022-11-30T15:04:16.067Z,18.47
2022-11-30T15:06:43.828Z,20.47
2022-11-30T15:09:16.443Z,19.00
2022-11-30T15:11:44.367Z,17.07
2022-11-30T15:14:12.125Z,20.17
2022-11-30T15:16:47.059Z,18.67
2022-11-30T15:19:21.361Z,19.33
2022-11-30T15:21:48.927Z,18.47
2022-11-30T15:24:16.668Z,26.77
2022-11-30T15:26:49.773Z,25.23
2022-11-30T15:29:22.421Z,31.43
2022-11-30T15:31:50.814Z,32.80
2022-11-30T15:34:21.239Z,31.13
2022-11-30T15:36:49.983Z,30.50
2022-11-30T15:39:19.076Z,32.80
2022-11-30T15:41:46.696Z,29.67
2022-11-30T15:44:24.023Z,34.17
2022-11-30T15:46:56.302Z,33.03
2022-11-30T15:49:26.338Z,31.97
2022-11-30T15:52:02.185Z,32.83
2022-11-30T15:54:56.560Z,31.17
2022-11-30T15:57:24.736Z,30.23
2022-11-30T16:00:07.165Z,28.73
2022-11-30T16:02:35.690Z,28.87
2022-11-30T16:05:19.530Z,29.67
2022-11-30T16:07:50.928Z,31.17
2022-11-30T16:10:20.381Z,31.83
2022-11-30T16:12:49.382Z,32.57
2022-11-30T16:15:17.810Z,29.47
2022-11-30T16:17:45.226Z,27.77
2022-11-30T16:20:13.593Z,27.57
2022-11-30T16:22:42.188Z,31.57
2022-11-30T16:25:13.685Z,35.00
2022-11-30T16:27:41.312Z,32.50
2022-11-30T16:30:09.296Z,33.50
2022-11-30T16:32:36.758Z,33.20
2022-11-30T16:35:04.245Z,32.87
2022-11-30T16:37:31.647Z,32.73
2022-11-30T16:39:59.213Z,29.53
2022-11-30T16:42:27.996Z,34.07
2022-11-30T16:44:55.427Z,32.17
2022-11-30T16:47:22.855Z,32.53
2022-11-30T16:49:50.312Z,33.30
2022-11-30T16:52:18.046Z,31.87
2022-11-30T16:54:45.583Z,34.40
2022-11-30T16:57:12.998Z,28.03
2022-11-30T16:59:41.800Z,28.33
2022-11-30T17:02:15.333Z,27.80
2022-11-30T17:04:42.789Z,33.27
2022-11-30T17:07:10.270Z,32.23
2022-11-30T17:09:37.723Z,30.43
2022-11-30T17:12:05.262Z,32.37
2022-11-30T17:14:32.651Z,32.93
2022-11-30T17:17:01.497Z,32.57
2022-11-30T17:19:29.002Z,32.43
2022-11-30T17:21:56.497Z,35.90
2022-11-30T17:24:24.160Z,35.13
2022-11-30T17:26:51.632Z,35.87
2022-11-30T17:29:19.085Z,31.47
2022-11-30T17:31:46.484Z,32.13
2022-11-30T17:34:15.286Z,33.20
2022-11-30T17:36:42.777Z,31.90
2022-11-30T17:39:10.197Z,28.00
2022-11-30T17:41:37.605Z,28.60
2022-11-30T17:44:05.040Z,29.97
2022-11-30T17:46:32.450Z,28.63
2022-11-30T17:48:59.924Z,26.43
2022-11-30T17:51:29.002Z,28.53
2022-11-30T17:53:56.518Z,27.83
2022-11-30T17:56:24.223Z,28.43
2022-11-30T17:58:51.682Z,32.87
2022-11-30T18:01:19.828Z,30.33
2022-11-30T18:03:47.419Z,30.50
2022-11-30T18:06:15.042Z,30.03
2022-11-30T18:08:44.056Z,27.83
2022-11-30T18:11:12.513Z,31.13
2022-11-30T18:13:39.916Z,30.47
2022-11-30T18:16:07.952Z,30.33
2022-11-30T18:18:35.750Z,33.07
2022-11-30T18:21:06.358Z,35.07
2022-11-30T18:23:34.996Z,31.37
2022-11-30T18:26:03.991Z,32.40
2022-11-30T18:28:31.452Z,33.53
2022-11-30T18:30:58.952Z,31.13
2022-11-30T18:33:26.508Z,30.93
2022-11-30T18:35:57.590Z,30.60
2022-11-30T18:38:25.210Z,31.43
2022-11-30T18:40:52.659Z,30.93
2022-11-30T18:43:21.675Z,32.63
2022-11-30T18:45:49.144Z,30.87
2022-11-30T18:48:16.683Z,31.70
2022-11-30T18:50:44.176Z,31.57
2022-11-30T18:53:15.205Z,28.03
2022-11-30T18:55:45.637Z,25.87
2022-11-30T18:58:13.040Z,27.20
2022-11-30T19:00:41.872Z,27.47
2022-11-30T19:03:09.299Z,25.43
2022-11-30T19:05:38.181Z,26.83
2022-11-30T19:08:07.026Z,24.73
2022-11-30T19:10:34.918Z,22.90
2022-11-30T19:13:03.978Z,21.47
2022-11-30T19:15:31.486Z,23.63
2022-11-30T19:18:00.572Z,22.57
2022-11-30T19:20:28.059Z,24.47
2022-11-30T19:22:55.486Z,24.57
2022-11-30T19:25:22.931Z,23.60
2022-11-30T19:27:50.334Z,23.33
2022-11-30T19:30:18.047Z,26.70
2022-11-30T19:32:45.453Z,27.90
2022-11-30T19:35:14.215Z,28.47
2022-11-30T19:37:41.622Z,31.30
2022-11-30T19:40:09.475Z,28.93
2022-11-30T19:42:36.889Z,28.50
2022-11-30T19:45:04.836Z,29.97
2022-11-30T19:47:32.253Z,29.83
2022-11-30T19:49:59.667Z,28.83
2022-11-30T19:52:28.425Z,28.53
2022-11-30T19:54:55.851Z,30.57
2022-11-30T19:57:23.255Z,33.77
2022-11-30T19:59:50.675Z,31.00
2022-11-30T20:02:18.162Z,36.83
2022-11-30T20:04:45.755Z,36.50
2022-11-30T20:07:13.469Z,36.00
2022-11-30T20:09:42.429Z,40.07
2022-11-30T20:12:09.865Z,38.20
2022-11-30T20:14:37.292Z,45.83
2022-11-30T20:17:04.896Z,45.27
2022-11-30T20:19:32.662Z,39.17
2022-11-30T20:22:00.577Z,39.60
2022-11-30T20:24:28.074Z,44.50
2022-11-30T20:26:56.976Z,43.53
2022-11-30T20:29:24.419Z,41.53
2022-11-30T20:31:51.874Z,48.53
2022-11-30T20:34:19.327Z,42.60
2022-11-30T20:36:46.986Z,47.63
2022-11-30T20:39:14.457Z,46.90
2022-11-30T20:41:42.486Z,50.27
2022-11-30T20:44:13.864Z,45.30
2022-11-30T20:46:41.377Z,51.87
2022-11-30T20:49:13.480Z,49.00
2022-11-30T20:51:41.004Z,49.90
2022-11-30T20:54:08.407Z,45.13
2022-11-30T20:56:37.020Z,50.67
2022-11-30T20:59:05.815Z,46.73
2022-11-30T21:01:34.823Z,47.50
2022-11-30T21:04:02.318Z,47.87
2022-11-30T21:06:30.395Z,47.83
2022-11-30T21:08:57.976Z,48.37
2022-11-30T21:11:25.966Z,53.53
2022-11-30T21:13:53.628Z,43.77
2022-11-30T21:16:27.165Z,52.90
2022-11-30T21:18:57.274Z,52.20
2022-11-30T21:21:25.671Z,43.60
2022-11-30T21:23:53.219Z,46.97
2022-11-30T21:26:21.859Z,50.77
2022-11-30T21:28:50.234Z,51.53
2022-11-30T21:31:17.715Z,47.77
2022-11-30T21:33:52.407Z,52.00
2022-11-30T21:36:22.565Z,50.70
2022-11-30T21:38:54.300Z,48.47
2022-11-30T21:41:23.538Z,49.13
2022-11-30T21:43:50.941Z,51.33
2022-11-30T21:46:19.245Z,48.80
2022-11-30T21:48:47.717Z,51.73
2022-11-30T21:51:16.412Z,50.93
2022-11-30T21:53:45.987Z,50.53
2022-11-30T21:56:15.471Z,53.40
2022-11-30T21:58:43.571Z,51.97
2022-11-30T22:01:12.775Z,44.00
2022-11-30T22:03:40.292Z,59.73
2022-11-30T22:06:08.641Z,52.57
2022-11-30T22:08:36.364Z,52.40
2022-11-30T22:11:06.246Z,55.03
2022-11-30T22:13:34.076Z,52.07
2022-11-30T22:16:02.113Z,55.83
2022-11-30T22:18:29.578Z,56.03
2022-11-30T22:21:02.933Z,49.43
2022-11-30T22:23:30.334Z,56.07
2022-11-30T22:26:09.096Z,52.10
2022-11-30T22:28:36.637Z,51.80
2022-11-30T22:31:04.325Z,53.60
2022-11-30T22:33:32.768Z,43.87
2022-11-30T22:36:00.313Z,53.27
2022-11-30T22:38:27.851Z,50.83
2022-11-30T22:40:55.287Z,60.33
2022-11-30T22:43:24.046Z,57.17
2022-11-30T22:45:52.479Z,49.40
2022-11-30T22:48:19.908Z,59.13
2022-11-30T22:50:47.332Z,57.50
2022-11-30T22:53:14.720Z,62.73
2022-11-30T22:55:47.835Z,58.43
2022-11-30T22:58:15.786Z,62.83
2022-11-30T23:00:44.514Z,63.63
2022-11-30T23:03:12.051Z,57.47
2022-11-30T23:05:39.503Z,58.17
2022-11-30T23:08:06.991Z,59.70
2022-11-30T23:10:34.439Z,58.80
2022-11-30T23:13:01.847Z,56.67
2022-11-30T23:15:29.268Z,62.23
2022-11-30T23:17:58.024Z,65.53
2022-11-30T23:20:25.481Z,61.20
2022-11-30T23:22:52.902Z,64.37
2022-11-30T23:25:21.374Z,61.93
2022-11-30T23:27:48.781Z,62.83
2022-11-30T23:30:17.472Z,57.97
2022-11-30T23:32:44.914Z,60.43
2022-11-30T23:35:13.758Z,62.00
2022-11-30T23:37:41.143Z,64.83
2022-11-30T23:40:09.132Z,63.17
2022-11-30T23:42:36.540Z,60.37
2022-11-30T23:45:03.958Z,65.80
2022-11-30T23:47:31.363Z,59.90
2022-11-30T23:49:59.846Z,60.73
2022-11-30T23:52:28.613Z,72.97
2022-11-30T23:54:55.996Z,65.93
2022-11-30T23:57:23.410Z,61.50
2022-11-30T23:59:50.901Z,71.83
